Time;durP1;ratioP1;P1;durP2;ratioP2;P2;SDS_P1;SDS_P2;PMS_P1;PMS_P2;Temp;Humidity;BMP_temperature;BMP_pressure;BME280_temperature;BME280_humidity;BME280_pressure;Samples;Min_cycle;Max_cycle;Signal;HPM_P1;HPM_P2
2022/07/15 00:01:15;;;;;;;5.90;3.15;;;;;;;;;;4997014;28;20091;-41
2022/07/15 00:03:41;;;;;;;5.00;3.28;;;;;;;;;;5005870;28;20033;-42
2022/07/15 00:06:06;;;;;;;5.57;3.03;;;;;;;;;;5002211;28;20034;-42
2022/07/15 00:08:32;;;;;;;4.43;3.20;;;;;;;;;;4997306;28;20034;-44
2022/07/15 00:10:58;;;;;;;7.28;3.30;;;;;;;;;;5005464;28;20375;-42
2022/07/15 00:13:25;;;;;;;9.68;3.20;;;;;;;;;;5003706;28;20037;-44
2022/07/15 00:15:50;;;;;;;4.97;2.70;;;;;;;;;;5002077;28;20029;-44
2022/07/15 00:18:16;;;;;;;5.22;3.10;;;;;;;;;;5003728;28;20026;-47
2022/07/15 00:20:42;;;;;;;5.38;3.60;;;;;;;;;;5003710;28;20514;-48
2022/07/15 00:23:08;;;;;;;8.73;4.45;;;;;;;;;;4999965;28;20026;-45
2022/07/15 00:25:34;;;;;;;5.32;3.28;;;;;;;;;;5001381;28;20382;-44
2022/07/15 00:28:05;;;;;;;3.60;3.30;;;;;;;;;;5001314;28;20053;-43
2022/07/15 00:30:34;;;;;;;3.72;3.20;;;;;;;;;;5005222;28;20036;-48
2022/07/15 00:33:01;;;;;;;4.40;3.10;;;;;;;;;;5001979;28;20454;-44
2022/07/15 00:35:28;;;;;;;5.82;3.13;;;;;;;;;;5000788;28;20017;-44
2022/07/15 00:37:54;;;;;;;5.10;3.50;;;;;;;;;;4999924;28;20042;-47
2022/07/15 00:40:20;;;;;;;5.05;3.45;;;;;;;;;;5000471;28;20027;-45
2022/07/15 00:42:46;;;;;;;6.00;3.20;;;;;;;;;;5001456;28;20057;-42
2022/07/15 00:45:18;;;;;;;4.05;3.10;;;;;;;;;;5004331;28;20026;-49
2022/07/15 00:47:51;;;;;;;4.93;3.42;;;;;;;;;;5002184;28;20030;-43
2022/07/15 00:50:18;;;;;;;3.63;3.10;;;;;;;;;;5002655;28;20029;-41
2022/07/15 00:52:54;;;;;;;2.95;2.65;;;;;;;;;;5006808;28;20026;-42
2022/07/15 00:55:20;;;;;;;3.13;2.90;;;;;;;;;;5004162;28;20046;-46
2022/07/15 00:57:47;;;;;;;6.07;3.38;;;;;;;;;;5002547;28;20141;-43
2022/07/15 01:00:14;;;;;;;4.75;3.35;;;;;;;;;;5000616;28;20026;-45
2022/07/15 01:02:43;;;;;;;3.50;3.20;;;;;;;;;;4997080;28;20030;-42
2022/07/15 01:05:10;;;;;;;3.72;3.28;;;;;;;;;;5001653;28;20064;-43
2022/07/15 01:07:38;;;;;;;4.13;3.70;;;;;;;;;;5001264;28;20061;-42
2022/07/15 01:10:05;;;;;;;4.05;3.10;;;;;;;;;;5004067;28;20065;-42
2022/07/15 01:12:32;;;;;;;10.57;3.50;;;;;;;;;;4999575;28;20042;-46
2022/07/15 01:14:58;;;;;;;5.00;3.35;;;;;;;;;;5002392;28;20025;-44
2022/07/15 01:17:24;;;;;;;6.20;3.55;;;;;;;;;;5000752;28;20040;-41
2022/07/15 01:19:50;;;;;;;4.32;3.90;;;;;;;;;;5006590;28;20037;-42
2022/07/15 01:22:16;;;;;;;4.63;3.67;;;;;;;;;;4998909;28;20039;-42
2022/07/15 01:24:42;;;;;;;5.30;3.55;;;;;;;;;;5000792;28;20499;-45
2022/07/15 01:27:08;;;;;;;5.10;4.10;;;;;;;;;;5003126;28;20025;-46
2022/07/15 01:29:34;;;;;;;5.68;3.70;;;;;;;;;;5000369;28;20037;-44
2022/07/15 01:31:59;;;;;;;8.50;4.38;;;;;;;;;;5000911;28;20073;-42
2022/07/15 01:34:25;;;;;;;5.35;3.63;;;;;;;;;;5001977;28;20030;-46
2022/07/15 01:36:51;;;;;;;6.55;4.20;;;;;;;;;;5002996;28;20435;-46
2022/07/15 01:39:16;;;;;;;9.27;3.70;;;;;;;;;;5001949;28;20061;-43
2022/07/15 01:41:42;;;;;;;4.00;3.70;;;;;;;;;;4999750;28;21039;-44
2022/07/15 01:44:08;;;;;;;5.07;4.10;;;;;;;;;;5003491;28;20029;-41
2022/07/15 01:46:33;;;;;;;3.88;3.58;;;;;;;;;;5002662;28;20038;-42
2022/07/15 01:51:43;;;;;;;6.65;4.07;;;;;;;;;;5004126;28;20685;-41
2022/07/15 01:54:09;;;;;;;4.78;4.05;;;;;;;;;;4993640;28;20037;-42
2022/07/15 01:56:36;;;;;;;6.93;4.72;;;;;;;;;;5001531;28;20104;-42
2022/07/15 01:59:02;;;;;;;5.35;4.35;;;;;;;;;;4999889;28;20093;-44
2022/07/15 02:01:28;;;;;;;10.50;4.57;;;;;;;;;;4998032;28;20105;-43
2022/07/15 02:03:53;;;;;;;5.05;3.88;;;;;;;;;;4998962;28;20109;-41
2022/07/15 02:06:19;;;;;;;5.40;4.10;;;;;;;;;;5004231;28;20033;-42
2022/07/15 02:08:44;;;;;;;4.18;3.88;;;;;;;;;;5005314;28;20080;-42
2022/07/15 02:11:11;;;;;;;6.18;4.72;;;;;;;;;;5004559;28;20440;-42
2022/07/15 02:13:37;;;;;;;6.18;4.40;;;;;;;;;;4991911;28;20026;-44
2022/07/15 02:16:02;;;;;;;11.13;5.00;;;;;;;;;;5005935;28;20022;-46
2022/07/15 02:18:28;;;;;;;7.90;5.45;;;;;;;;;;5006331;28;20033;-41
2022/07/15 02:20:54;;;;;;;12.13;4.90;;;;;;;;;;5005334;28;20026;-41
2022/07/15 02:23:20;;;;;;;7.90;5.38;;;;;;;;;;4995349;28;20038;-41
2022/07/15 02:25:45;;;;;;;8.10;5.03;;;;;;;;;;4986827;28;21001;-42
2022/07/15 02:28:11;;;;;;;7.30;4.85;;;;;;;;;;4999577;28;20030;-43
2022/07/15 02:30:39;;;;;;;6.90;4.38;;;;;;;;;;5007154;28;20021;-42
2022/07/15 02:33:06;;;;;;;4.80;4.30;;;;;;;;;;5007252;28;20022;-41
2022/07/15 02:35:33;;;;;;;4.72;4.13;;;;;;;;;;5006382;28;20041;-41
2022/07/15 02:37:59;;;;;;;9.30;4.20;;;;;;;;;;4999407;28;20041;-43
2022/07/15 02:40:25;;;;;;;8.27;3.85;;;;;;;;;;5008227;28;20478;-42
2022/07/15 02:42:57;;;;;;;4.82;4.35;;;;;;;;;;5007413;28;20463;-41
2022/07/15 02:45:26;;;;;;;8.05;4.53;;;;;;;;;;5002217;28;20026;-44
2022/07/15 02:47:52;;;;;;;10.27;4.40;;;;;;;;;;4991721;28;20487;-41
2022/07/15 02:50:20;;;;;;;7.45;4.30;;;;;;;;;;4997059;28;20034;-41
2022/07/15 02:52:46;;;;;;;9.18;4.43;;;;;;;;;;5004504;28;20037;-41
2022/07/15 02:55:13;;;;;;;5.88;4.28;;;;;;;;;;4991722;28;20134;-41
2022/07/15 02:57:39;;;;;;;7.20;4.25;;;;;;;;;;5006065;28;20021;-40
2022/07/15 03:00:08;;;;;;;4.78;4.22;;;;;;;;;;5006147;28;20026;-41
2022/07/15 03:02:35;;;;;;;8.32;4.57;;;;;;;;;;5000845;28;20037;-42
2022/07/15 03:05:01;;;;;;;7.70;4.80;;;;;;;;;;4997783;28;20038;-40
2022/07/15 03:07:28;;;;;;;5.85;4.82;;;;;;;;;;5005936;28;20034;-41
2022/07/15 03:09:54;;;;;;;5.07;4.60;;;;;;;;;;5003062;28;20057;-46
2022/07/15 03:12:20;;;;;;;6.95;4.93;;;;;;;;;;5000637;28;20058;-42
2022/07/15 03:14:45;;;;;;;7.60;4.65;;;;;;;;;;4998700;28;20060;-41
2022/07/15 03:17:11;;;;;;;7.25;4.93;;;;;;;;;;5006433;28;20034;-41
2022/07/15 03:19:37;;;;;;;6.93;4.97;;;;;;;;;;5004553;28;20030;-41
2022/07/15 03:22:03;;;;;;;7.68;5.22;;;;;;;;;;5003865;28;20034;-42
2022/07/15 03:24:29;;;;;;;6.28;5.30;;;;;;;;;;4998416;28;20030;-41
2022/07/15 03:26:55;;;;;;;7.93;5.07;;;;;;;;;;5007496;28;20026;-41
2022/07/15 03:29:20;;;;;;;8.75;5.18;;;;;;;;;;5005111;28;20030;-41
2022/07/15 03:31:46;;;;;;;7.03;5.57;;;;;;;;;;5005813;28;20115;-40
2022/07/15 03:34:12;;;;;;;13.77;5.78;;;;;;;;;;4998697;28;20041;-41
2022/07/15 03:36:38;;;;;;;10.65;5.88;;;;;;;;;;5004694;28;20594;-41
2022/07/15 03:39:05;;;;;;;16.08;5.72;;;;;;;;;;5008630;28;20064;-41
2022/07/15 03:41:31;;;;;;;8.98;5.65;;;;;;;;;;5007352;28;20478;-41
2022/07/15 03:43:57;;;;;;;7.82;5.45;;;;;;;;;;5000355;28;20034;-41
2022/07/15 03:46:23;;;;;;;7.72;5.63;;;;;;;;;;5004346;28;20025;-41
2022/07/15 03:48:49;;;;;;;12.82;5.90;;;;;;;;;;5009555;28;20041;-42
2022/07/15 03:51:15;;;;;;;12.25;6.18;;;;;;;;;;5011962;28;20464;-41
2022/07/15 03:53:41;;;;;;;9.77;6.18;;;;;;;;;;5000396;28;20052;-41
2022/07/15 03:56:07;;;;;;;9.85;6.07;;;;;;;;;;5006624;28;20053;-42
2022/07/15 03:58:33;;;;;;;7.80;6.03;;;;;;;;;;5008606;28;20041;-41
2022/07/15 04:00:59;;;;;;;16.48;7.20;;;;;;;;;;5012177;28;20526;-42
2022/07/15 04:03:25;;;;;;;7.55;6.60;;;;;;;;;;5002589;28;20137;-41
2022/07/15 04:05:50;;;;;;;10.20;7.15;;;;;;;;;;4999167;28;20524;-42
2022/07/15 04:08:16;;;;;;;10.10;7.22;;;;;;;;;;5007326;28;20473;-44
2022/07/15 04:10:42;;;;;;;11.75;7.30;;;;;;;;;;5001714;28;20031;-43
2022/07/15 04:13:08;;;;;;;10.85;7.65;;;;;;;;;;5008090;28;20022;-41
2022/07/15 04:15:35;;;;;;;9.45;7.07;;;;;;;;;;4997317;28;20033;-42
2022/07/15 04:18:02;;;;;;;16.48;8.95;;;;;;;;;;5009187;28;20189;-41
2022/07/15 04:20:27;;;;;;;17.52;7.47;;;;;;;;;;5006442;28;20029;-43
2022/07/15 04:22:53;;;;;;;10.27;7.50;;;;;;;;;;5008707;28;20487;-42
2022/07/15 04:25:20;;;;;;;10.00;7.15;;;;;;;;;;4995206;28;20041;-44
2022/07/15 04:27:50;;;;;;;9.98;7.60;;;;;;;;;;5008798;28;20037;-41
2022/07/15 04:30:16;;;;;;;10.13;7.63;;;;;;;;;;5006678;28;20037;-42
2022/07/15 04:32:42;;;;;;;16.27;7.95;;;;;;;;;;5008570;28;20030;-41
2022/07/15 04:35:08;;;;;;;12.80;8.25;;;;;;;;;;4988511;28;20168;-42
2022/07/15 04:37:33;;;;;;;9.95;8.55;;;;;;;;;;5007880;28;20113;-41
2022/07/15 04:39:59;;;;;;;10.63;7.88;;;;;;;;;;5007051;28;20037;-41
2022/07/15 04:42:25;;;;;;;10.57;8.73;;;;;;;;;;5004542;28;22282;-39
2022/07/15 04:44:51;;;;;;;15.10;9.80;;;;;;;;;;4995529;28;20096;-41
2022/07/15 04:47:17;;;;;;;11.95;9.68;;;;;;;;;;5004838;28;20046;-44
2022/07/15 04:52:30;;;;;;;21.05;9.10;;;;;;;;;;5006699;28;20068;-41
2022/07/15 04:54:56;;;;;;;14.90;10.13;;;;;;;;;;4997989;28;20141;-41
2022/07/15 04:57:22;;;;;;;18.02;9.25;;;;;;;;;;4998953;28;20913;-43
2022/07/15 04:59:48;;;;;;;11.82;10.38;;;;;;;;;;5009024;28;20112;-43
2022/07/15 05:02:14;;;;;;;18.10;10.18;;;;;;;;;;5006727;28;20102;-41
2022/07/15 05:04:40;;;;;;;14.68;10.18;;;;;;;;;;4999285;28;20038;-41
2022/07/15 05:07:07;;;;;;;14.13;9.95;;;;;;;;;;5004901;28;20446;-42
2022/07/15 05:09:33;;;;;;;16.73;9.70;;;;;;;;;;5000592;28;20816;-42
2022/07/15 05:11:59;;;;;;;15.35;9.65;;;;;;;;;;4996870;28;20064;-41
2022/07/15 05:14:25;;;;;;;13.30;10.07;;;;;;;;;;5006461;28;20021;-39
2022/07/15 05:16:50;;;;;;;14.93;9.88;;;;;;;;;;4993838;28;20497;-42
2022/07/15 05:19:16;;;;;;;15.20;10.05;;;;;;;;;;5006993;28;20561;-42
2022/07/15 05:21:42;;;;;;;20.70;10.80;;;;;;;;;;5006515;28;20038;-41
2022/07/15 05:24:08;;;;;;;16.40;10.57;;;;;;;;;;5005871;28;20032;-47
2022/07/15 05:26:33;;;;;;;16.13;11.10;;;;;;;;;;5001452;28;20564;-41
2022/07/15 05:28:59;;;;;;;16.33;11.10;;;;;;;;;;5006309;28;20056;-41
2022/07/15 05:31:25;;;;;;;18.52;11.18;;;;;;;;;;5006161;28;20037;-41
2022/07/15 05:33:52;;;;;;;20.30;11.38;;;;;;;;;;5005257;28;20462;-42
2022/07/15 05:36:18;;;;;;;19.30;11.75;;;;;;;;;;5001900;28;20432;-42
2022/07/15 05:38:44;;;;;;;16.27;10.60;;;;;;;;;;5007270;28;20042;-47
2022/07/15 05:41:10;;;;;;;13.70;9.98;;;;;;;;;;5006397;28;20121;-43
2022/07/15 05:43:36;;;;;;;89.82;13.07;;;;;;;;;;5006490;28;20106;-41
2022/07/15 05:46:02;;;;;;;14.80;11.02;;;;;;;;;;4995339;28;20044;-41
2022/07/15 05:48:27;;;;;;;19.58;10.82;;;;;;;;;;5005759;28;20033;-43
2022/07/15 05:50:53;;;;;;;14.95;10.38;;;;;;;;;;5005798;28;20083;-44
2022/07/15 05:53:19;;;;;;;16.40;11.13;;;;;;;;;;5009139;28;20026;-43
2022/07/15 05:55:44;;;;;;;16.65;10.25;;;;;;;;;;4999949;28;20076;-40
2022/07/15 05:58:10;;;;;;;12.50;10.02;;;;;;;;;;5007926;28;20164;-41
2022/07/15 06:00:39;;;;;;;10.75;9.50;;;;;;;;;;5006326;28;20038;-41
2022/07/15 06:03:06;;;;;;;15.68;9.02;;;;;;;;;;5005377;28;20524;-42
2022/07/15 06:05:32;;;;;;;13.38;8.60;;;;;;;;;;4999376;28;20033;-44
2022/07/15 06:07:58;;;;;;;12.20;8.90;;;;;;;;;;5003975;28;20116;-42
2022/07/15 06:10:24;;;;;;;16.42;9.55;;;;;;;;;;5000921;28;20029;-41
2022/07/15 06:12:49;;;;;;;17.08;8.48;;;;;;;;;;5010795;28;20091;-42
2022/07/15 06:15:15;;;;;;;15.23;8.60;;;;;;;;;;4997622;28;20408;-42
2022/07/15 06:17:41;;;;;;;10.88;8.23;;;;;;;;;;5007333;28;20030;-42
2022/07/15 06:20:07;;;;;;;13.38;9.82;;;;;;;;;;5007950;28;20121;-42
2022/07/15 06:22:33;;;;;;;22.75;9.43;;;;;;;;;;5006371;28;20371;-43
2022/07/15 06:24:59;;;;;;;25.58;8.48;;;;;;;;;;4998095;28;21281;-41
2022/07/15 06:27:25;;;;;;;125.15;16.73;;;;;;;;;;4999699;28;20536;-41
2022/07/15 06:29:51;;;;;;;11.55;8.00;;;;;;;;;;5006597;28;20048;-41
2022/07/15 06:32:18;;;;;;;8.85;7.80;;;;;;;;;;5005157;28;20034;-42
2022/07/15 06:34:44;;;;;;;11.90;8.23;;;;;;;;;;4997676;28;20397;-42
2022/07/15 06:37:10;;;;;;;41.08;9.60;;;;;;;;;;4993982;28;20057;-41
2022/07/15 06:39:36;;;;;;;22.67;8.40;;;;;;;;;;4991278;28;20073;-42
2022/07/15 06:42:02;;;;;;;14.50;7.53;;;;;;;;;;4991064;28;20188;-42
2022/07/15 06:44:28;;;;;;;10.35;7.38;;;;;;;;;;4991002;28;20042;-44
2022/07/15 06:46:55;;;;;;;12.30;6.90;;;;;;;;;;4990496;28;20030;-42
2022/07/15 06:49:21;;;;;;;12.00;7.30;;;;;;;;;;4995699;28;20033;-45
2022/07/15 06:51:47;;;;;;;12.32;7.40;;;;;;;;;;4987465;28;20045;-44
2022/07/15 06:54:13;;;;;;;9.77;7.10;;;;;;;;;;5007141;28;20022;-45
2022/07/15 06:56:39;;;;;;;12.13;6.50;;;;;;;;;;5002989;28;20054;-45
2022/07/15 06:59:05;;;;;;;6.90;6.28;;;;;;;;;;4996900;28;20033;-43
2022/07/15 07:01:31;;;;;;;13.55;7.53;;;;;;;;;;4998560;28;20399;-42
2022/07/15 07:03:56;;;;;;;9.73;7.03;;;;;;;;;;4993690;28;20483;-43
2022/07/15 07:06:22;;;;;;;8.93;6.80;;;;;;;;;;4992635;28;20037;-44
2022/07/15 07:08:48;;;;;;;9.82;6.20;;;;;;;;;;4989729;28;20061;-44
2022/07/15 07:11:15;;;;;;;8.98;6.20;;;;;;;;;;4985238;28;20070;-45
2022/07/15 07:13:41;;;;;;;9.52;6.13;;;;;;;;;;4991487;28;20455;-42
2022/07/15 07:16:07;;;;;;;10.38;6.57;;;;;;;;;;4993532;28;20038;-42
2022/07/15 07:18:33;;;;;;;12.38;7.25;;;;;;;;;;5000657;28;20053;-43
2022/07/15 07:20:59;;;;;;;11.95;6.72;;;;;;;;;;4994687;28;20478;-42
2022/07/15 07:23:26;;;;;;;8.85;6.78;;;;;;;;;;5001835;28;20029;-41
2022/07/15 07:25:53;;;;;;;9.27;6.80;;;;;;;;;;4999515;28;20026;-43
2022/07/15 07:28:19;;;;;;;14.43;6.97;;;;;;;;;;4997076;28;20133;-43
2022/07/15 07:30:46;;;;;;;13.88;6.97;;;;;;;;;;4995756;28;20149;-42
2022/07/15 07:33:12;;;;;;;11.20;7.00;;;;;;;;;;4990935;28;20022;-46
2022/07/15 07:35:39;;;;;;;15.82;7.05;;;;;;;;;;4994055;28;20029;-42
2022/07/15 07:38:04;;;;;;;13.43;8.13;;;;;;;;;;4992781;28;20529;-43
2022/07/15 07:40:30;;;;;;;9.88;6.90;;;;;;;;;;5004949;28;20033;-41
2022/07/15 07:42:56;;;;;;;11.18;8.30;;;;;;;;;;5003510;28;20320;-44
2022/07/15 07:45:23;;;;;;;12.52;10.13;;;;;;;;;;5006798;28;20022;-42
2022/07/15 07:47:49;;;;;;;14.32;11.20;;;;;;;;;;4992584;28;20512;-42
2022/07/15 07:50:15;;;;;;;13.50;11.00;;;;;;;;;;5009221;28;20041;-42
2022/07/15 07:52:42;;;;;;;12.98;11.13;;;;;;;;;;5001575;28;20026;-42
2022/07/15 07:55:08;;;;;;;19.10;10.85;;;;;;;;;;4994386;28;20084;-43
2022/07/15 07:57:35;;;;;;;12.55;10.80;;;;;;;;;;5009218;28;20034;-41
2022/07/15 08:00:02;;;;;;;15.38;13.75;;;;;;;;;;5004414;28;20046;-43
2022/07/15 08:02:33;;;;;;;17.75;12.25;;;;;;;;;;5007813;28;20099;-41
2022/07/15 08:04:59;;;;;;;19.95;14.73;;;;;;;;;;5006916;28;20034;-43
2022/07/15 08:07:24;;;;;;;23.98;13.27;;;;;;;;;;5010856;28;20506;-42
2022/07/15 08:09:50;;;;;;;13.20;11.05;;;;;;;;;;5006069;28;20359;-43
2022/07/15 08:12:16;;;;;;;11.20;9.60;;;;;;;;;;5006015;28;20025;-41
2022/07/15 08:14:41;;;;;;;11.77;10.63;;;;;;;;;;5008837;28;20034;-44
2022/07/15 08:17:07;;;;;;;12.75;11.60;;;;;;;;;;5002202;28;20042;-43
2022/07/15 08:19:33;;;;;;;18.63;13.93;;;;;;;;;;5002572;28;20094;-46
2022/07/15 08:21:58;;;;;;;13.98;12.55;;;;;;;;;;5006990;28;20087;-41
2022/07/15 08:24:24;;;;;;;14.75;12.35;;;;;;;;;;5005033;28;20035;-42
2022/07/15 08:26:50;;;;;;;14.68;12.77;;;;;;;;;;5004221;28;20025;-42
2022/07/15 08:29:15;;;;;;;15.75;13.02;;;;;;;;;;5008617;28;20038;-42
2022/07/15 08:31:41;;;;;;;18.55;13.60;;;;;;;;;;5006468;28;20034;-41
2022/07/15 08:34:08;;;;;;;15.98;14.00;;;;;;;;;;5008242;28;20029;-46
2022/07/15 08:36:33;;;;;;;19.25;16.27;;;;;;;;;;5007590;28;20065;-42
2022/07/15 08:38:59;;;;;;;19.75;15.38;;;;;;;;;;5007916;28;20404;-44
2022/07/15 08:41:25;;;;;;;19.23;17.33;;;;;;;;;;5006659;28;20601;-42
2022/07/15 08:43:51;;;;;;;23.20;19.50;;;;;;;;;;5005986;28;20045;-42
2022/07/15 08:46:17;;;;;;;28.85;21.17;;;;;;;;;;5008842;28;20034;-42
2022/07/15 08:48:49;;;;;;;25.85;21.40;;;;;;;;;;5008676;28;20598;-42
2022/07/15 08:51:20;;;;;;;37.08;23.90;;;;;;;;;;5004482;28;20025;-42
2022/07/15 08:53:46;;;;;;;25.83;23.00;;;;;;;;;;4997403;28;20102;-42
2022/07/15 08:56:12;;;;;;;25.58;22.95;;;;;;;;;;4998398;28;20050;-44
2022/07/15 08:58:39;;;;;;;28.33;24.67;;;;;;;;;;5009310;28;20030;-43
2022/07/15 09:01:05;;;;;;;29.10;24.08;;;;;;;;;;5005322;28;20049;-44
2022/07/15 09:03:30;;;;;;;29.00;25.75;;;;;;;;;;5008479;28;20064;-42
2022/07/15 09:05:56;;;;;;;30.25;26.17;;;;;;;;;;5005623;28;20061;-42
2022/07/15 09:08:22;;;;;;;36.22;28.00;;;;;;;;;;5007079;28;20075;-41
2022/07/15 09:10:56;;;;;;;34.03;27.75;;;;;;;;;;5006393;28;20056;-44
2022/07/15 09:13:39;;;;;;;35.28;28.17;;;;;;;;;;5004082;28;20041;-41
2022/07/15 09:16:10;;;;;;;34.97;27.67;;;;;;;;;;5003318;28;20088;-45
2022/07/15 09:18:38;;;;;;;31.17;27.95;;;;;;;;;;5006444;28;20037;-42
2022/07/15 09:21:20;;;;;;;31.33;28.00;;;;;;;;;;5008109;28;20038;-42
2022/07/15 09:23:46;;;;;;;32.65;28.27;;;;;;;;;;5004451;28;20509;-42
2022/07/15 09:26:32;;;;;;;30.65;27.45;;;;;;;;;;5007535;28;20042;-43
2022/07/15 09:28:59;;;;;;;30.50;27.30;;;;;;;;;;5006596;28;20022;-44
2022/07/15 09:34:21;;;;;;;31.05;25.30;;;;;;;;;;5003994;28;20101;-42
2022/07/15 09:36:54;;;;;;;35.40;26.92;;;;;;;;;;5002399;28;20056;-42
2022/07/15 09:39:21;;;;;;;31.75;24.35;;;;;;;;;;5008212;28;20030;-42
2022/07/15 09:41:50;;;;;;;30.40;22.95;;;;;;;;;;5007400;28;20628;-42
2022/07/15 09:44:20;;;;;;;24.63;21.85;;;;;;;;;;5004676;28;20371;-44
2022/07/15 09:46:52;;;;;;;29.10;23.38;;;;;;;;;;5005997;28;20030;-41
2022/07/15 09:49:24;;;;;;;26.67;21.60;;;;;;;;;;5005875;28;20057;-42
2022/07/15 09:52:00;;;;;;;;;;;;;;;;;;4999470;28;20069;-41
2022/07/15 09:54:30;;;;;;;26.92;21.15;;;;;;;;;;5005224;28;19971;-39
2022/07/15 09:56:57;;;;;;;20.40;18.40;;;;;;;;;;5007100;28;20033;-44
2022/07/15 09:59:24;;;;;;;20.15;15.82;;;;;;;;;;5007644;28;20037;-41
2022/07/15 10:01:50;;;;;;;15.57;14.07;;;;;;;;;;5001101;28;20023;-42
2022/07/15 10:04:19;;;;;;;11.60;9.23;;;;;;;;;;5004024;28;20115;-44
2022/07/15 10:06:47;;;;;;;13.30;9.05;;;;;;;;;;5003240;28;20529;-42
2022/07/15 10:09:13;;;;;;;15.38;8.82;;;;;;;;;;5005883;28;20072;-42
2022/07/15 10:11:45;;;;;;;13.43;8.18;;;;;;;;;;5005802;28;20030;-42
2022/07/15 10:14:46;;;;;;;11.48;7.72;;;;;;;;;;5004874;28;20022;-42
2022/07/15 10:18:09;;;;;;;9.50;7.37;;;;;;;;;;5001646;28;20033;-42
2022/07/15 10:20:40;;;;;;;8.65;7.15;;;;;;;;;;4978020;28;20050;-43
2022/07/15 10:23:18;;;;;;;;;;;;;;;;;;4978768;28;20049;-42
2022/07/15 10:25:58;;;;;;;11.52;7.15;;;;;;;;;;4975550;28;19946;-42
2022/07/15 10:28:47;;;;;;;10.20;6.60;;;;;;;;;;4975212;28;20037;-42
2022/07/15 10:31:28;;;;;;;14.60;6.88;;;;;;;;;;4975813;28;20038;-41
2022/07/15 10:34:02;;;;;;;8.90;5.57;;;;;;;;;;4969813;28;20081;-41
2022/07/15 10:36:53;;;;;;;6.28;5.60;;;;;;;;;;4967616;28;20098;-43
2022/07/15 10:39:26;;;;;;;6.53;5.65;;;;;;;;;;4974753;28;20061;-41
2022/07/15 10:41:51;;;;;;;10.38;6.65;;;;;;;;;;4975847;28;20058;-42
2022/07/15 10:44:20;;;;;;;6.75;6.05;;;;;;;;;;4978884;28;20545;-47
2022/07/15 10:47:07;;;;;;;5.60;5.10;;;;;;;;;;4976110;28;20050;-47
2022/07/15 10:49:33;;;;;;;7.68;4.75;;;;;;;;;;4972959;28;20042;-42
2022/07/15 10:52:13;;;;;;;8.18;4.80;;;;;;;;;;4993453;28;20045;-41
2022/07/15 10:54:41;;;;;;;9.80;4.55;;;;;;;;;;5003971;28;20136;-42
2022/07/15 10:57:09;;;;;;;12.30;4.05;;;;;;;;;;5007157;28;20045;-42
2022/07/15 10:59:40;;;;;;;7.47;3.75;;;;;;;;;;5005916;28;20061;-42
2022/07/15 11:02:06;;;;;;;4.85;3.20;;;;;;;;;;5003062;28;20184;-42
2022/07/15 11:04:33;;;;;;;5.07;3.40;;;;;;;;;;5012275;28;20125;-41
2022/07/15 11:07:02;;;;;;;4.15;3.40;;;;;;;;;;5005026;28;20041;-42
2022/07/15 11:09:56;;;;;;;6.30;3.58;;;;;;;;;;5003947;28;20495;-42
2022/07/15 11:12:28;;;;;;;5.85;3.15;;;;;;;;;;5006963;28;20029;-42
2022/07/15 11:14:57;;;;;;;3.72;2.70;;;;;;;;;;5008004;28;20030;-44
2022/07/15 11:17:29;;;;;;;4.80;2.20;;;;;;;;;;5007287;28;20049;-41
2022/07/15 11:20:04;;;;;;;9.75;2.40;;;;;;;;;;5003647;28;20044;-44
2022/07/15 11:22:30;;;;;;;6.93;2.28;;;;;;;;;;5005359;28;20021;-41
2022/07/15 11:24:56;;;;;;;8.75;2.38;;;;;;;;;;5007527;28;20486;-41
2022/07/15 11:27:24;;;;;;;3.47;2.00;;;;;;;;;;5008512;28;20068;-41
2022/07/15 11:30:01;;;;;;;8.75;2.10;;;;;;;;;;5007583;28;20029;-42
2022/07/15 11:32:28;;;;;;;3.53;2.20;;;;;;;;;;5004532;28;20026;-41
2022/07/15 11:34:57;;;;;;;7.45;2.08;;;;;;;;;;5006222;28;20026;-42
2022/07/15 11:37:33;;;;;;;7.93;2.20;;;;;;;;;;5006055;28;20034;-41
2022/07/15 11:40:08;;;;;;;7.03;1.80;;;;;;;;;;5002883;28;20053;-43
2022/07/15 11:45:37;;;;;;;2.97;1.80;;;;;;;;;;5004899;28;20079;-41
2022/07/15 11:48:09;;;;;;;5.30;2.00;;;;;;;;;;5002590;28;20030;-44
2022/07/15 11:50:36;;;;;;;7.40;1.70;;;;;;;;;;5006274;28;20029;-42
2022/07/15 11:53:11;;;;;;;4.20;1.90;;;;;;;;;;5003934;28;20482;-42
2022/07/15 11:55:48;;;;;;;6.43;1.92;;;;;;;;;;5002702;28;20736;-45
2022/07/15 11:58:14;;;;;;;4.75;1.75;;;;;;;;;;5005627;28;20042;-43
2022/07/15 12:00:47;;;;;;;4.38;1.73;;;;;;;;;;5010341;28;20037;-48
2022/07/15 12:03:12;;;;;;;7.07;2.22;;;;;;;;;;5007997;28;20034;-43
2022/07/15 12:05:38;;;;;;;4.95;1.77;;;;;;;;;;5007421;28;20037;-43
2022/07/15 12:08:04;;;;;;;1.77;1.60;;;;;;;;;;5007216;28;20475;-43
2022/07/15 12:10:38;;;;;;;5.72;1.73;;;;;;;;;;5009197;28;20113;-44
2022/07/15 12:13:05;;;;;;;4.55;1.60;;;;;;;;;;5007834;28;20479;-46
2022/07/15 12:15:33;;;;;;;8.23;1.50;;;;;;;;;;5010158;28;20084;-42
2022/07/15 12:18:00;;;;;;;8.02;1.70;;;;;;;;;;5005463;28;20035;-46
2022/07/15 12:20:27;;;;;;;9.25;2.08;;;;;;;;;;5009093;28;20124;-44
2022/07/15 12:23:07;;;;;;;14.65;1.92;;;;;;;;;;5005516;28;20101;-42
2022/07/15 12:25:33;;;;;;;6.75;1.60;;;;;;;;;;5009760;28;20168;-43
2022/07/15 12:27:59;;;;;;;3.47;1.60;;;;;;;;;;5011637;28;20069;-42
2022/07/15 12:30:33;;;;;;;2.70;1.33;;;;;;;;;;5007545;28;20698;-42
2022/07/15 12:33:20;;;;;;;8.77;1.80;;;;;;;;;;5006715;28;20084;-42
2022/07/15 12:35:47;;;;;;;2.05;1.42;;;;;;;;;;5009796;28;20038;-46
2022/07/15 12:38:27;;;;;;;6.70;1.50;;;;;;;;;;5008268;28;20030;-43
2022/07/15 12:41:03;;;;;;;4.65;1.27;;;;;;;;;;5006596;28;20049;-43
2022/07/15 12:43:48;;;;;;;2.55;1.38;;;;;;;;;;5008130;28;20463;-45
2022/07/15 12:46:15;;;;;;;3.70;1.17;;;;;;;;;;5008882;28;20041;-43
2022/07/15 12:48:46;;;;;;;6.05;1.40;;;;;;;;;;5006762;28;20034;-43
2022/07/15 12:51:12;;;;;;;2.55;1.40;;;;;;;;;;5006846;28;20075;-44
2022/07/15 12:53:38;;;;;;;5.80;1.40;;;;;;;;;;5006356;28;20045;-43
2022/07/15 12:56:06;;;;;;;6.82;1.70;;;;;;;;;;5006059;28;20050;-43
2022/07/15 12:58:34;;;;;;;4.57;1.17;;;;;;;;;;5008401;28;20022;-45
2022/07/15 13:01:07;;;;;;;3.20;1.40;;;;;;;;;;5007161;28;20042;-45
2022/07/15 13:03:33;;;;;;;3.40;1.30;;;;;;;;;;5004557;28;20050;-43
2022/07/15 13:06:00;;;;;;;3.85;1.15;;;;;;;;;;5007248;28;20371;-44
2022/07/15 13:08:35;;;;;;;5.45;1.40;;;;;;;;;;5005688;28;20029;-41
2022/07/15 13:11:04;;;;;;;6.78;1.60;;;;;;;;;;5002030;28;20485;-46
2022/07/15 13:13:32;;;;;;;2.20;1.30;;;;;;;;;;5007544;28;20691;-43
2022/07/15 13:16:01;;;;;;;4.10;1.50;;;;;;;;;;5008947;28;20364;-43
2022/07/15 13:18:28;;;;;;;5.25;1.20;;;;;;;;;;5007307;28;20049;-48
2022/07/15 13:20:56;;;;;;;8.20;1.30;;;;;;;;;;5007666;28;20040;-48
2022/07/15 13:23:22;;;;;;;5.75;1.30;;;;;;;;;;5007134;28;20509;-44
2022/07/15 13:25:50;;;;;;;6.18;1.42;;;;;;;;;;5006920;28;20021;-43
2022/07/15 13:28:16;;;;;;;7.40;1.27;;;;;;;;;;5005765;28;20026;-48
2022/07/15 13:30:42;;;;;;;5.70;1.40;;;;;;;;;;5006147;28;20037;-43
2022/07/15 13:33:08;;;;;;;2.08;1.20;;;;;;;;;;5006377;28;20122;-43
2022/07/15 13:35:34;;;;;;;1.20;1.10;;;;;;;;;;5009317;28;20116;-45
2022/07/15 13:38:00;;;;;;;2.40;1.10;;;;;;;;;;5005692;28;20030;-44
2022/07/15 13:40:26;;;;;;;3.70;1.65;;;;;;;;;;5004486;28;20025;-41
2022/07/15 13:42:52;;;;;;;5.82;1.95;;;;;;;;;;5006979;28;20033;-44
2022/07/15 13:45:17;;;;;;;2.08;1.90;;;;;;;;;;5005696;28;20033;-43
2022/07/15 13:47:44;;;;;;;3.72;1.60;;;;;;;;;;5006492;28;20072;-43
2022/07/15 13:52:57;;;;;;;2.03;1.80;;;;;;;;;;5006506;28;20076;-45
2022/07/15 13:55:24;;;;;;;2.35;1.77;;;;;;;;;;5008625;28;20403;-43
2022/07/15 13:57:50;;;;;;;5.35;1.75;;;;;;;;;;5006520;28;20907;-49
2022/07/15 14:00:22;;;;;;;39.03;2.65;;;;;;;;;;5008824;28;20025;-47
2022/07/15 14:02:49;;;;;;;2.50;1.30;;;;;;;;;;5002117;28;20490;-43
2022/07/15 14:05:15;;;;;;;4.65;1.20;;;;;;;;;;5009471;28;20030;-52
2022/07/15 14:07:41;;;;;;;5.90;1.30;;;;;;;;;;5006542;28;20520;-43
2022/07/15 14:10:08;;;;;;;10.70;1.58;;;;;;;;;;5006944;28;20026;-43
2022/07/15 14:12:34;;;;;;;2.97;1.30;;;;;;;;;;5007171;28;20041;-43
2022/07/15 14:15:00;;;;;;;4.63;1.60;;;;;;;;;;5005633;28;20030;-48
2022/07/15 14:17:29;;;;;;;4.40;1.10;;;;;;;;;;5006162;28;20036;-44
2022/07/15 14:19:55;;;;;;;5.47;1.48;;;;;;;;;;5005115;28;20647;-47
2022/07/15 14:22:22;;;;;;;7.50;1.33;;;;;;;;;;5006482;28;20071;-44
2022/07/15 14:24:47;;;;;;;3.13;1.38;;;;;;;;;;5005707;28;20116;-45
2022/07/15 14:27:13;;;;;;;1.02;0.93;;;;;;;;;;5007443;28;20120;-45
2022/07/15 14:29:39;;;;;;;1.60;1.05;;;;;;;;;;5005796;28;20063;-49
2022/07/15 14:32:05;;;;;;;2.33;1.17;;;;;;;;;;5005051;28;20037;-44
2022/07/15 14:34:31;;;;;;;1.85;1.10;;;;;;;;;;5008185;28;20037;-43
2022/07/15 14:36:56;;;;;;;2.92;1.20;;;;;;;;;;5003881;28;20037;-43
2022/07/15 14:39:24;;;;;;;1.50;1.40;;;;;;;;;;5005991;28;20037;-43
2022/07/15 14:41:50;;;;;;;1.45;1.30;;;;;;;;;;5004469;28;20037;-45
2022/07/15 14:44:15;;;;;;;1.52;1.25;;;;;;;;;;5004289;28;20034;-43
2022/07/15 14:46:41;;;;;;;5.97;1.10;;;;;;;;;;5005967;28;20433;-44
2022/07/15 14:49:07;;;;;;;5.75;1.42;;;;;;;;;;5004991;28;20034;-48
2022/07/15 14:51:33;;;;;;;4.35;1.38;;;;;;;;;;5004374;28;20048;-43
2022/07/15 14:53:59;;;;;;;3.30;1.23;;;;;;;;;;5008556;28;20453;-44